High Level Airport
CYOJ : now visible

Airfield :











YOU CAN JOIN US ON...

 
LOGIN :

Register | Disclaimer

   EN    FR    IT 

 









Legend :    VFR   Marginal VFR   IFR   Intensive IFR   Very Intensive IFR
Visi :
Ceiling :
>= 8 km
>= 3000ft
5 to 8 km
1000 to 3000 ft
1500m to 5 km
500 to 1000 ft
800 to 1500m
200 to 500 ft
< 800m
< 200 ft
Symbols :   Thunderstorms  Fog  Heavy snow  Heavy precipitations  Wind > 20 kt






- Airport Elevation : 1110 ft
- IATA code : YOJ


CYOJ - High Level

CURRENT METAR :
  • 311000Z AUTO 11007KT 9SM -RA OVC090 16/05 A2965 RMK SLP046 DENSITY ALT 1700FT

EXPIRED METARs :
  • 310949Z AUTO 13008KT 9SM -RA OVC090 16/03 A2966 RMK SLP049 DENSITY ALT 1800FT
  • 310927Z AUTO 12005KT 9SM -RA OVC090 17/04 A2966 RMK SLP050 DENSITY ALT 1800FT
  • 310900Z AUTO 11007KT 9SM OVC100 17/03 A2967 RMK SLP053 DENSITY ALT 1800FT
  • 310800Z AUTO 11008KT 9SM OVC095 17/03 A2969 RMK SLP059 DENSITY ALT 1900FT

TAF TAF CYOJ
Valid from the 31 at 07:00 until the 31 at 19:00 UTC


310638Z 3107/3119 11008KT P6SM OVC120
FM310800 10008KT P6SM -SHRA OVC080
FM311100 10008KT P6SM -SHRA SCT020 OVC040 RMK FCST BASED ON AUTO OBS. NXT FCST BY 311300Z
CZEG FIR / North America



MET'MAP, your aeronautical weather chart ! - Copyright ORBIFLY December 2007 - Disclaimer

ORBIFLY MET'MAP TEAM :

Programming & Development : Alexandra Zaïnal
Concept & original design : Baudouin d'Aumeries
Assistance for programming : Marc-Olivier Méhu
Technical & hardware support : Manuel Goepfert

Contact : metmap@orbifly.com




SOURCES & CREDITS :

   NOAA       Earth
Advisory